createdAt,value
2017-07-23T00:02:01.902Z,20.20
2017-07-23T00:04:29.048Z,20.00
2017-07-23T00:06:56.161Z,19.90
2017-07-23T00:09:22.587Z,19.90
2017-07-23T00:11:48.990Z,20.00
2017-07-23T00:14:15.401Z,20.10
2017-07-23T00:16:42.537Z,20.10
2017-07-23T00:19:09.686Z,19.90
2017-07-23T00:21:36.076Z,19.90
2017-07-23T00:24:02.489Z,19.80
2017-07-23T00:26:28.925Z,19.70
2017-07-23T00:28:55.354Z,19.60
2017-07-23T00:31:21.737Z,19.60
2017-07-23T00:33:48.143Z,19.60
2017-07-23T00:36:14.547Z,19.50
2017-07-23T00:38:40.979Z,19.70
2017-07-23T00:41:07.390Z,19.80
2017-07-23T00:43:34.521Z,19.70
2017-07-23T00:46:00.940Z,19.70
2017-07-23T00:48:27.342Z,19.70
2017-07-23T00:50:53.744Z,19.70
2017-07-23T00:53:20.892Z,19.70
2017-07-23T00:55:47.323Z,19.70
2017-07-23T00:58:14.486Z,19.60
2017-07-23T01:00:40.904Z,19.60
2017-07-23T01:03:08.053Z,19.50
2017-07-23T01:05:35.177Z,19.50
2017-07-23T01:08:01.584Z,19.50
2017-07-23T01:10:28.021Z,19.50
2017-07-23T01:12:54.438Z,19.50
2017-07-23T01:15:20.861Z,19.50
2017-07-23T01:17:47.279Z,19.60
2017-07-23T01:20:14.427Z,19.50
2017-07-23T01:22:40.832Z,19.40
2017-07-23T01:25:07.678Z,19.40
2017-07-23T01:27:34.088Z,19.50
2017-07-23T01:30:00.524Z,19.50
2017-07-23T01:32:26.936Z,19.30
2017-07-23T01:34:53.360Z,19.20
2017-07-23T01:37:19.778Z,19.20
2017-07-23T01:39:46.205Z,19.20
2017-07-23T01:42:12.646Z,19.20
2017-07-23T01:44:39.105Z,19.10
2017-07-23T01:47:05.539Z,19.10
2017-07-23T01:49:31.980Z,19.00
2017-07-23T01:51:58.443Z,19.00
2017-07-23T01:54:24.848Z,18.90
2017-07-23T01:56:51.370Z,18.90
2017-07-23T01:59:17.810Z,18.90
2017-07-23T02:01:44.216Z,18.90
2017-07-23T02:04:10.617Z,19.00
2017-07-23T02:06:37.777Z,19.10
2017-07-23T02:09:04.938Z,19.20
2017-07-23T02:11:31.364Z,19.20
2017-07-23T02:13:57.777Z,19.20
2017-07-23T02:16:24.206Z,19.10
2017-07-23T02:18:50.590Z,19.10
2017-07-23T02:21:16.988Z,19.10
2017-07-23T02:23:44.136Z,19.10
2017-07-23T02:26:11.292Z,19.10
2017-07-23T02:28:38.425Z,19.00
2017-07-23T02:31:05.585Z,19.00
2017-07-23T02:33:32.726Z,19.00
2017-07-23T02:35:59.125Z,19.00
2017-07-23T02:38:25.588Z,18.90
2017-07-23T02:40:52.026Z,18.80
2017-07-23T02:43:18.407Z,18.90
2017-07-23T02:45:44.809Z,18.90
2017-07-23T02:48:12.008Z,18.70
2017-07-23T02:50:38.440Z,18.70
2017-07-23T02:53:04.844Z,18.70
2017-07-23T02:55:31.231Z,18.70
2017-07-23T02:57:57.647Z,18.70
2017-07-23T03:00:24.044Z,18.70
2017-07-23T03:02:50.408Z,18.70
2017-07-23T03:05:16.813Z,18.70
2017-07-23T03:07:43.173Z,18.60
2017-07-23T03:10:09.574Z,18.50
2017-07-23T03:12:36.026Z,18.50
2017-07-23T03:15:02.474Z,18.50
2017-07-23T03:17:28.939Z,18.60
2017-07-23T03:19:56.085Z,18.80
2017-07-23T03:22:23.201Z,18.80
2017-07-23T03:24:49.605Z,18.80
2017-07-23T03:27:16.046Z,18.70
2017-07-23T03:29:42.441Z,18.60
2017-07-23T03:32:08.837Z,18.50
2017-07-23T03:34:35.236Z,18.40
2017-07-23T03:37:01.626Z,18.40
2017-07-23T03:39:28.004Z,18.30
2017-07-23T03:41:54.441Z,18.40
2017-07-23T03:44:20.896Z,18.40
2017-07-23T03:46:47.297Z,18.40
2017-07-23T03:49:13.719Z,18.40
2017-07-23T03:51:40.128Z,18.40
2017-07-23T03:54:07.297Z,18.60
2017-07-23T03:56:34.469Z,18.60
2017-07-23T03:59:00.868Z,18.60
2017-07-23T04:01:27.261Z,18.50
2017-07-23T04:03:53.661Z,18.50
2017-07-23T04:06:20.083Z,18.60
2017-07-23T04:08:46.498Z,18.70
2017-07-23T04:11:12.925Z,18.70
2017-07-23T04:13:40.073Z,18.90
2017-07-23T04:16:07.202Z,18.90
2017-07-23T04:18:33.612Z,18.90
2017-07-23T04:21:00.067Z,19.00
2017-07-23T04:23:26.464Z,19.10
2017-07-23T04:25:52.860Z,19.10
2017-07-23T04:28:20.007Z,19.30
2017-07-23T04:30:47.152Z,19.30
2017-07-23T04:33:13.567Z,19.30
2017-07-23T04:35:39.937Z,19.40
2017-07-23T04:38:06.344Z,19.40
2017-07-23T04:40:33.075Z,19.30
2017-07-23T04:42:59.502Z,19.40
2017-07-23T04:45:25.898Z,19.40
2017-07-23T04:47:52.342Z,19.50
2017-07-23T04:50:18.748Z,19.40
2017-07-23T04:52:45.152Z,19.40
2017-07-23T04:55:12.283Z,19.60
2017-07-23T04:57:38.666Z,19.60
2017-07-23T05:00:05.092Z,19.60
2017-07-23T05:02:31.486Z,19.70
2017-07-23T05:04:57.902Z,19.80
2017-07-23T05:07:24.319Z,19.80
2017-07-23T05:09:50.687Z,19.80
2017-07-23T05:12:17.088Z,19.80
2017-07-23T05:14:43.500Z,19.80
2017-07-23T05:17:09.921Z,19.90
2017-07-23T05:19:36.336Z,20.10
2017-07-23T05:22:03.507Z,20.40
2017-07-23T05:24:29.884Z,20.40
2017-07-23T05:26:56.337Z,20.30
2017-07-23T05:29:22.742Z,20.40
2017-07-23T05:31:49.175Z,20.50
2017-07-23T05:34:15.558Z,20.50
2017-07-23T05:36:41.974Z,20.50
2017-07-23T05:39:09.156Z,20.80
2017-07-23T05:41:35.552Z,20.70
2017-07-23T05:44:01.952Z,20.80
2017-07-23T05:46:28.347Z,21.00
2017-07-23T05:48:54.808Z,21.20
2017-07-23T05:51:21.580Z,21.30
2017-07-23T05:53:48.005Z,21.40
2017-07-23T05:56:14.617Z,21.50
2017-07-23T05:58:41.009Z,21.50
2017-07-23T06:01:08.159Z,22.00
2017-07-23T06:03:35.296Z,22.20
2017-07-23T06:06:02.472Z,22.50
2017-07-23T06:08:28.907Z,22.40
2017-07-23T06:10:55.316Z,22.60
2017-07-23T06:13:22.494Z,22.50
2017-07-23T06:15:48.913Z,22.50
2017-07-23T06:18:16.072Z,22.70
2017-07-23T06:20:42.439Z,22.70
2017-07-23T06:23:08.857Z,22.90
2017-07-23T06:25:35.269Z,23.00
2017-07-23T06:28:01.689Z,23.10
2017-07-23T06:30:28.833Z,23.30
2017-07-23T06:32:56.008Z,23.30
2017-07-23T06:35:22.432Z,23.30
2017-07-23T06:37:48.877Z,23.30
2017-07-23T06:40:15.310Z,23.20
2017-07-23T06:42:41.745Z,23.20
2017-07-23T06:45:08.217Z,23.10
2017-07-23T06:47:34.652Z,23.20
2017-07-23T06:50:01.104Z,23.30
2017-07-23T06:52:27.503Z,23.30
2017-07-23T06:54:53.923Z,23.40
2017-07-23T06:57:20.334Z,23.40
2017-07-23T06:59:46.759Z,23.40
2017-07-23T07:02:13.901Z,23.40
2017-07-23T07:04:40.270Z,23.40
2017-07-23T07:07:06.650Z,23.20
2017-07-23T07:09:33.082Z,23.10
2017-07-23T07:11:59.496Z,23.00
2017-07-23T07:14:25.886Z,22.80
2017-07-23T07:16:52.296Z,22.70
2017-07-23T07:19:19.521Z,22.50
2017-07-23T07:21:45.982Z,22.50
2017-07-23T07:24:12.418Z,22.40
2017-07-23T07:26:38.828Z,22.30
2017-07-23T07:29:05.222Z,22.00
2017-07-23T07:31:31.628Z,21.80
2017-07-23T07:33:58.017Z,21.50
2017-07-23T07:36:24.427Z,21.20
2017-07-23T07:38:50.913Z,21.20
2017-07-23T07:41:18.061Z,21.20
2017-07-23T07:43:45.229Z,21.40
2017-07-23T07:46:11.628Z,21.40
2017-07-23T07:48:38.035Z,21.40
2017-07-23T07:51:04.433Z,21.40
2017-07-23T07:53:30.843Z,21.50
2017-07-23T07:55:58.004Z,21.60
2017-07-23T07:58:24.529Z,21.60
2017-07-23T08:00:51.715Z,21.90
2017-07-23T08:03:18.166Z,21.90
2017-07-23T08:05:44.600Z,21.90
2017-07-23T08:08:11.037Z,22.00
2017-07-23T08:10:37.491Z,22.00
2017-07-23T08:13:03.904Z,22.20
2017-07-23T08:15:30.297Z,22.40
2017-07-23T08:17:56.672Z,22.50
2017-07-23T08:20:23.160Z,22.80
2017-07-23T08:22:49.601Z,23.20
2017-07-23T08:25:16.012Z,23.70
2017-07-23T08:27:43.177Z,23.70
2017-07-23T08:30:09.560Z,23.70
2017-07-23T08:32:35.979Z,23.70
2017-07-23T08:35:02.374Z,23.90
2017-07-23T08:37:28.778Z,24.00
2017-07-23T08:39:55.922Z,24.60
2017-07-23T08:42:22.337Z,24.60
2017-07-23T08:44:48.756Z,24.80
2017-07-23T08:47:15.158Z,25.00
2017-07-23T08:49:41.558Z,24.90
2017-07-23T08:52:08.736Z,24.50
2017-07-23T08:54:35.185Z,24.50
2017-07-23T08:57:01.619Z,24.30
2017-07-23T08:59:34.647Z,24.30
2017-07-23T09:02:01.042Z,24.30
2017-07-23T09:04:27.421Z,24.20
2017-07-23T09:06:54.610Z,24.10
2017-07-23T09:09:21.033Z,24.00
2017-07-23T09:11:47.452Z,24.10
2017-07-23T09:14:14.610Z,24.20
2017-07-23T09:16:41.768Z,24.10
2017-07-23T09:19:08.168Z,24.10
2017-07-23T09:21:34.579Z,24.10
2017-07-23T09:24:00.981Z,24.30
2017-07-23T09:26:27.416Z,24.60
2017-07-23T09:28:53.808Z,24.70
2017-07-23T09:31:20.925Z,24.50
2017-07-23T09:33:47.332Z,24.50
2017-07-23T09:36:13.757Z,24.50
2017-07-23T09:38:40.164Z,24.50
2017-07-23T09:41:07.339Z,24.60
2017-07-23T09:43:33.736Z,24.60
2017-07-23T09:46:00.112Z,24.60
2017-07-23T09:48:26.511Z,24.50
2017-07-23T09:50:53.650Z,24.70
2017-07-23T09:53:20.043Z,24.70
2017-07-23T09:55:46.450Z,24.90
2017-07-23T09:58:12.854Z,25.00
2017-07-23T10:00:44.382Z,25.00
2017-07-23T10:06:13.556Z,25.30
2017-07-23T10:08:56.551Z,25.50
2017-07-23T10:11:27.308Z,25.50
2017-07-23T10:13:54.937Z,25.60
2017-07-23T10:16:33.796Z,25.60
2017-07-23T10:19:11.960Z,25.60
2017-07-23T10:21:40.054Z,25.90
2017-07-23T10:24:16.950Z,25.90
2017-07-23T10:29:25.797Z,26.00
2017-07-23T10:31:55.813Z,26.10
2017-07-23T10:34:22.221Z,26.10
2017-07-23T10:36:49.372Z,26.30
2017-07-23T10:39:16.510Z,26.50
2017-07-23T10:41:42.876Z,26.50
2017-07-23T10:44:09.275Z,26.60
2017-07-23T10:46:36.423Z,26.90
2017-07-23T10:49:03.556Z,27.10
2017-07-23T10:51:29.974Z,27.00
2017-07-23T10:53:56.371Z,27.10
2017-07-23T10:56:22.756Z,27.30
2017-07-23T10:58:49.170Z,27.40
2017-07-23T11:01:15.582Z,27.50
2017-07-23T11:03:41.981Z,27.50
2017-07-23T11:06:09.112Z,27.40
2017-07-23T11:08:35.534Z,27.40
2017-07-23T11:11:01.956Z,27.50
2017-07-23T11:13:28.359Z,27.40
2017-07-23T11:15:54.736Z,27.50
2017-07-23T11:18:21.137Z,27.70
2017-07-23T11:20:47.528Z,27.90
2017-07-23T11:23:14.624Z,28.10
2017-07-23T11:25:41.061Z,28.10
2017-07-23T11:28:22.384Z,28.10
2017-07-23T11:30:49.563Z,28.50
2017-07-23T11:33:15.946Z,28.50
2017-07-23T11:35:42.324Z,28.50
2017-07-23T11:38:08.729Z,28.50
2017-07-23T11:40:35.125Z,28.60
2017-07-23T11:43:01.540Z,28.90
2017-07-23T11:45:27.959Z,29.00
2017-07-23T11:47:54.352Z,28.80
2017-07-23T11:50:21.484Z,28.70
2017-07-23T11:52:47.871Z,28.70
2017-07-23T11:55:14.305Z,28.60
2017-07-23T11:57:40.709Z,28.60
2017-07-23T12:00:07.896Z,28.70
2017-07-23T12:02:34.631Z,28.70
2017-07-23T12:05:01.038Z,28.80
2017-07-23T12:07:28.191Z,28.80
2017-07-23T12:09:55.346Z,28.90
2017-07-23T12:12:21.759Z,28.90
2017-07-23T12:14:48.914Z,28.80
2017-07-23T12:17:15.322Z,28.80
2017-07-23T12:19:41.716Z,28.90
2017-07-23T12:22:08.139Z,28.60
2017-07-23T12:24:34.508Z,28.70
2017-07-23T12:27:00.893Z,28.90
2017-07-23T12:29:28.082Z,29.30
2017-07-23T12:31:54.488Z,29.20
2017-07-23T12:34:20.892Z,29.30
2017-07-23T12:36:47.618Z,29.50
2017-07-23T12:39:14.015Z,29.60
2017-07-23T12:41:40.393Z,29.30
2017-07-23T12:44:06.804Z,29.20
2017-07-23T12:46:33.222Z,28.90
2017-07-23T12:48:59.629Z,28.30
2017-07-23T12:51:26.000Z,28.00
2017-07-23T12:53:52.398Z,27.80
2017-07-23T12:56:18.827Z,27.70
2017-07-23T12:58:45.225Z,27.70
2017-07-23T13:01:12.419Z,27.40
2017-07-23T13:03:40.458Z,27.30
2017-07-23T13:06:07.594Z,27.30
2017-07-23T13:08:33.995Z,27.20
2017-07-23T13:11:00.400Z,27.20
2017-07-23T13:13:26.864Z,27.00
2017-07-23T13:15:53.262Z,26.70
2017-07-23T13:18:19.722Z,26.30
2017-07-23T13:20:46.131Z,26.10
2017-07-23T13:23:12.518Z,26.10
2017-07-23T13:25:38.936Z,26.10
2017-07-23T13:28:05.357Z,26.10
2017-07-23T13:30:31.785Z,26.30
2017-07-23T13:32:58.258Z,26.50
2017-07-23T13:35:24.688Z,26.50
2017-07-23T13:37:51.162Z,26.60
2017-07-23T13:40:17.546Z,26.60
2017-07-23T13:42:43.956Z,26.90
2017-07-23T13:45:10.403Z,27.10
2017-07-23T13:47:36.894Z,27.30
2017-07-23T13:50:03.364Z,27.40
2017-07-23T13:52:29.760Z,27.60
2017-07-23T13:54:56.223Z,27.80
2017-07-23T13:57:22.644Z,27.80
2017-07-23T13:59:49.076Z,27.80
2017-07-23T14:02:15.464Z,27.90
2017-07-23T14:04:42.591Z,28.10
2017-07-23T14:07:09.002Z,28.10
2017-07-23T14:09:35.420Z,28.30
2017-07-23T14:12:01.793Z,28.30
2017-07-23T14:14:28.172Z,28.50
2017-07-23T14:16:54.563Z,28.60
2017-07-23T14:19:20.938Z,29.00
2017-07-23T14:21:47.342Z,29.10
2017-07-23T14:24:14.472Z,29.20
2017-07-23T14:26:40.885Z,29.10
2017-07-23T14:29:07.296Z,29.00
2017-07-23T14:31:33.705Z,29.10
2017-07-23T14:34:00.084Z,29.10
2017-07-23T14:36:26.499Z,29.10
2017-07-23T14:38:52.913Z,28.80
2017-07-23T14:41:19.328Z,28.60
2017-07-23T14:43:45.733Z,28.70
2017-07-23T14:46:12.140Z,28.70
2017-07-23T14:48:38.545Z,28.80
2017-07-23T14:51:04.963Z,28.70
2017-07-23T14:53:31.376Z,28.70
2017-07-23T14:55:57.775Z,28.60
2017-07-23T14:58:24.168Z,28.50
2017-07-23T15:00:50.613Z,28.50
2017-07-23T15:03:17.066Z,28.60
2017-07-23T15:05:43.478Z,28.90
2017-07-23T15:08:09.898Z,28.90
2017-07-23T15:10:36.341Z,28.90
2017-07-23T15:13:02.730Z,28.90
2017-07-23T15:15:29.152Z,29.00
2017-07-23T15:17:55.532Z,29.00
2017-07-23T15:20:21.929Z,29.10
2017-07-23T15:22:48.355Z,29.20
2017-07-23T15:25:14.730Z,29.30
2017-07-23T15:27:41.093Z,29.30
2017-07-23T15:30:07.508Z,29.10
2017-07-23T15:32:33.944Z,29.00
2017-07-23T15:35:00.386Z,29.00
2017-07-23T15:37:26.843Z,29.00
2017-07-23T15:39:53.206Z,29.10
2017-07-23T15:42:20.377Z,29.40
2017-07-23T15:44:46.793Z,29.30
2017-07-23T15:47:14.101Z,29.40
2017-07-23T15:49:40.534Z,29.40
2017-07-23T15:52:06.935Z,29.30
2017-07-23T15:54:33.313Z,29.00
2017-07-23T15:56:59.708Z,29.00
2017-07-23T15:59:26.108Z,28.90
2017-07-23T16:01:53.238Z,28.30
2017-07-23T16:04:19.644Z,28.20
2017-07-23T16:06:46.071Z,28.10
2017-07-23T16:09:12.492Z,27.90
2017-07-23T16:11:38.887Z,27.80
2017-07-23T16:14:06.038Z,27.90
2017-07-23T16:16:33.202Z,27.80
2017-07-23T16:19:00.359Z,27.50
2017-07-23T16:21:26.826Z,27.50
2017-07-23T16:23:53.234Z,27.30
2017-07-23T16:26:19.613Z,27.30
2017-07-23T16:28:46.018Z,27.50
2017-07-23T16:31:12.404Z,27.70
2017-07-23T16:33:39.573Z,27.90
2017-07-23T16:36:06.711Z,27.90
2017-07-23T16:38:33.911Z,27.70
2017-07-23T16:41:00.318Z,27.70
2017-07-23T16:43:26.735Z,27.70
2017-07-23T16:45:53.130Z,27.60
2017-07-23T16:48:19.548Z,27.50
2017-07-23T16:50:45.948Z,27.30
2017-07-23T16:53:12.354Z,27.20
2017-07-23T16:55:44.559Z,27.00
2017-07-23T16:58:10.955Z,27.00
2017-07-23T17:00:38.097Z,27.30
2017-07-23T17:03:04.484Z,27.30
2017-07-23T17:05:30.862Z,27.50
2017-07-23T17:07:57.980Z,27.50
2017-07-23T17:10:24.382Z,27.50
2017-07-23T17:12:50.895Z,27.60
2017-07-23T17:15:17.372Z,27.70
2017-07-23T17:17:43.783Z,27.80
2017-07-23T17:20:10.209Z,27.80
2017-07-23T17:22:36.599Z,27.60
2017-07-23T17:25:03.004Z,27.60
2017-07-23T17:27:29.400Z,27.50
2017-07-23T17:29:55.808Z,27.40
2017-07-23T17:32:22.199Z,27.30
2017-07-23T17:34:48.647Z,27.40
2017-07-23T17:37:15.065Z,27.50
2017-07-23T17:39:41.440Z,27.50
2017-07-23T17:42:07.830Z,27.50
2017-07-23T17:44:34.243Z,27.60
2017-07-23T17:47:00.650Z,27.50
2017-07-23T17:49:27.788Z,27.50
2017-07-23T17:51:55.998Z,27.40
2017-07-23T17:54:22.425Z,27.40
2017-07-23T17:56:48.838Z,27.30
2017-07-23T17:59:15.957Z,27.10
2017-07-23T18:01:42.389Z,27.10
2017-07-23T18:04:08.780Z,27.00
2017-07-23T18:06:35.166Z,26.90
2017-07-23T18:09:01.576Z,26.90
2017-07-23T18:11:27.991Z,26.80
2017-07-23T18:13:54.406Z,26.60
2017-07-23T18:16:20.889Z,26.50
2017-07-23T18:18:47.368Z,26.50
2017-07-23T18:21:13.752Z,26.40
2017-07-23T18:23:40.196Z,26.30
2017-07-23T18:26:06.608Z,26.20
2017-07-23T18:28:33.013Z,26.10
2017-07-23T18:30:59.457Z,26.00
2017-07-23T18:33:26.008Z,25.90
2017-07-23T18:35:52.427Z,25.80
2017-07-23T18:38:18.805Z,25.70
2017-07-23T18:40:45.969Z,25.80
2017-07-23T18:43:13.116Z,25.70
2017-07-23T18:45:40.255Z,25.60
2017-07-23T18:48:06.636Z,25.50
2017-07-23T18:50:33.027Z,25.40
2017-07-23T18:53:00.232Z,25.40
2017-07-23T18:55:26.635Z,25.30
2017-07-23T18:57:53.073Z,25.30
2017-07-23T19:00:19.481Z,25.20
2017-07-23T19:02:46.590Z,25.10
2017-07-23T19:05:13.007Z,25.10
2017-07-23T19:07:39.424Z,25.00
2017-07-23T19:10:05.912Z,24.90
2017-07-23T19:12:32.396Z,24.90
2017-07-23T19:14:58.800Z,24.90
2017-07-23T19:17:25.949Z,24.70
2017-07-23T19:19:53.103Z,24.50
2017-07-23T19:22:20.242Z,24.40
2017-07-23T19:24:47.379Z,24.30
2017-07-23T19:27:13.782Z,24.20
2017-07-23T19:29:40.205Z,24.20
2017-07-23T19:32:06.604Z,24.10
2017-07-23T19:34:33.797Z,24.00
2017-07-23T19:37:00.238Z,23.90
2017-07-23T19:39:26.641Z,23.90
2017-07-23T19:41:53.078Z,24.00
2017-07-23T19:44:19.517Z,23.90
2017-07-23T19:46:45.947Z,23.80
2017-07-23T19:49:12.365Z,23.80
2017-07-23T19:51:38.783Z,23.70
2017-07-23T19:54:05.924Z,23.60
2017-07-23T19:56:33.068Z,23.60
2017-07-23T19:58:59.465Z,23.60
2017-07-23T20:01:25.880Z,23.50
2017-07-23T20:03:52.359Z,23.50
2017-07-23T20:06:18.764Z,23.50
2017-07-23T20:08:45.346Z,23.40
2017-07-23T20:11:12.505Z,23.50
2017-07-23T20:13:39.696Z,23.30
2017-07-23T20:16:06.084Z,23.30
2017-07-23T20:18:33.238Z,23.20
2017-07-23T20:21:00.403Z,23.20
2017-07-23T20:23:26.832Z,23.20
2017-07-23T20:25:53.236Z,23.10
2017-07-23T20:28:19.671Z,23.10
2017-07-23T20:30:46.812Z,23.00
2017-07-23T20:33:13.238Z,23.00
2017-07-23T20:35:39.643Z,23.10
2017-07-23T20:38:06.112Z,23.00
2017-07-23T20:40:32.543Z,22.90
2017-07-23T20:42:58.925Z,22.90
2017-07-23T20:45:25.368Z,22.90
2017-07-23T20:47:51.764Z,22.90
2017-07-23T20:50:18.904Z,22.50
2017-07-23T20:52:46.092Z,22.30
2017-07-23T20:55:12.502Z,22.30
2017-07-23T20:57:39.669Z,21.90
2017-07-23T21:00:06.121Z,21.90
2017-07-23T21:02:32.547Z,21.70
2017-07-23T21:04:58.956Z,21.70
2017-07-23T21:07:26.089Z,21.70
2017-07-23T21:09:53.272Z,21.60
2017-07-23T21:12:19.671Z,21.60
2017-07-23T21:14:46.844Z,21.50
2017-07-23T21:17:13.250Z,21.50
2017-07-23T21:19:40.468Z,21.40
2017-07-23T21:22:06.881Z,21.40
2017-07-23T21:24:33.300Z,21.50
2017-07-23T21:26:59.688Z,21.40
2017-07-23T21:29:26.165Z,21.40
2017-07-23T21:31:52.562Z,21.20
2017-07-23T21:34:18.961Z,21.10
2017-07-23T21:36:46.089Z,21.20
2017-07-23T21:39:12.519Z,21.20
2017-07-23T21:41:38.931Z,21.10
2017-07-23T21:44:06.086Z,20.90
2017-07-23T21:46:33.247Z,20.80
2017-07-23T21:48:59.656Z,20.70
2017-07-23T21:51:26.802Z,20.30
2017-07-23T21:53:53.947Z,20.00
2017-07-23T21:56:20.339Z,20.00
2017-07-23T21:58:46.769Z,19.70
2017-07-23T22:01:13.180Z,19.60
2017-07-23T22:03:39.582Z,19.70
2017-07-23T22:06:06.717Z,20.00
2017-07-23T22:08:33.125Z,20.00
2017-07-23T22:10:59.552Z,20.00
2017-07-23T22:13:25.926Z,20.10
2017-07-23T22:15:53.085Z,20.20
2017-07-23T22:18:20.239Z,20.20
2017-07-23T22:20:47.377Z,20.20
2017-07-23T22:23:13.744Z,20.20
2017-07-23T22:25:40.480Z,20.40
2017-07-23T22:28:06.980Z,20.40
2017-07-23T22:30:34.114Z,20.40
2017-07-23T22:33:00.497Z,20.30
2017-07-23T22:35:26.909Z,20.40
2017-07-23T22:37:54.047Z,20.50
2017-07-23T22:40:21.192Z,20.60
2017-07-23T22:42:48.377Z,20.50
2017-07-23T22:45:14.804Z,20.50
2017-07-23T22:47:41.242Z,20.50
2017-07-23T22:50:07.646Z,20.50
2017-07-23T22:52:34.797Z,20.50
2017-07-23T22:55:01.969Z,20.40
2017-07-23T22:57:28.416Z,20.40
2017-07-23T22:59:54.813Z,20.40
2017-07-23T23:02:21.957Z,20.50
2017-07-23T23:04:48.393Z,20.40
2017-07-23T23:07:15.548Z,20.40
2017-07-23T23:09:41.914Z,20.40
2017-07-23T23:12:08.513Z,20.40
2017-07-23T23:14:35.686Z,20.40
2017-07-23T23:17:02.080Z,20.40
2017-07-23T23:19:28.502Z,20.40
2017-07-23T23:21:54.890Z,20.40
2017-07-23T23:24:21.306Z,20.40
2017-07-23T23:26:48.458Z,20.60
2017-07-23T23:29:14.890Z,20.60
2017-07-23T23:31:41.276Z,20.50
2017-07-23T23:34:07.696Z,20.60
2017-07-23T23:36:34.099Z,20.50
2017-07-23T23:39:00.486Z,20.40
2017-07-23T23:41:26.924Z,20.30
2017-07-23T23:43:53.339Z,20.30
2017-07-23T23:46:19.734Z,20.10
2017-07-23T23:48:46.167Z,20.10
2017-07-23T23:51:12.568Z,20.00
2017-07-23T23:53:38.938Z,20.10
2017-07-23T23:56:05.355Z,20.00
2017-07-23T23:58:31.780Z,19.90
